createdAt,value
2019-03-03T00:02:06.184Z,5.35
2019-03-03T00:04:35.958Z,3.95
2019-03-03T00:07:06.111Z,4.87
2019-03-03T00:09:36.374Z,4.40
2019-03-03T00:12:06.148Z,5.30
2019-03-03T00:14:35.922Z,5.20
2019-03-03T00:17:05.736Z,5.67
2019-03-03T00:19:35.519Z,4.95
2019-03-03T00:22:05.911Z,5.50
2019-03-03T00:24:35.726Z,5.28
2019-03-03T00:27:05.496Z,6.03
2019-03-03T00:29:36.158Z,4.83
2019-03-03T00:32:05.972Z,5.58
2019-03-03T00:34:35.676Z,4.45
2019-03-03T00:37:22.691Z,5.37
2019-03-03T00:39:54.275Z,5.30
2019-03-03T00:42:41.937Z,5.28
2019-03-03T00:45:14.644Z,4.60
2019-03-03T00:48:03.896Z,6.17
2019-03-03T00:50:38.121Z,5.08
2019-03-03T00:53:12.173Z,5.17
2019-03-03T00:55:43.590Z,5.25
2019-03-03T00:58:15.007Z,5.25
2019-03-03T01:00:52.168Z,5.10
2019-03-03T01:03:27.324Z,5.10
2019-03-03T01:06:01.754Z,6.35
2019-03-03T01:08:48.581Z,5.60
2019-03-03T01:11:35.631Z,5.37
2019-03-03T01:14:07.347Z,4.65
2019-03-03T01:16:55.122Z,5.25
2019-03-03T01:19:32.319Z,3.90
2019-03-03T01:22:13.594Z,4.60
2019-03-03T01:24:44.884Z,4.70
2019-03-03T01:27:14.918Z,4.37
2019-03-03T01:29:44.587Z,5.53
2019-03-03T01:32:14.369Z,4.60
2019-03-03T01:34:44.068Z,4.47
2019-03-03T01:37:13.882Z,4.70
2019-03-03T01:39:44.294Z,4.80
2019-03-03T01:42:14.073Z,4.65
2019-03-03T01:44:43.883Z,5.45
2019-03-03T01:47:14.258Z,4.95
2019-03-03T01:49:44.122Z,4.30
2019-03-03T01:52:13.915Z,6.05
2019-03-03T01:54:44.309Z,5.80
2019-03-03T01:57:14.080Z,5.42
2019-03-03T01:59:43.923Z,6.10
2019-03-03T02:02:14.159Z,4.87
2019-03-03T02:04:43.799Z,5.53
2019-03-03T02:07:13.607Z,5.00
2019-03-03T02:09:43.791Z,5.40
2019-03-03T02:12:13.567Z,6.85
2019-03-03T02:14:43.307Z,4.97
2019-03-03T02:17:14.226Z,5.15
2019-03-03T02:19:44.001Z,5.85
2019-03-03T02:22:13.913Z,5.60
2019-03-03T02:24:43.617Z,5.08
2019-03-03T02:27:13.455Z,5.10
2019-03-03T02:29:43.327Z,5.75
2019-03-03T02:32:13.370Z,6.12
2019-03-03T02:34:43.135Z,4.45
2019-03-03T02:37:13.016Z,5.25
2019-03-03T02:39:43.266Z,5.30
2019-03-03T02:42:13.100Z,4.83
2019-03-03T02:44:42.968Z,5.08
2019-03-03T02:47:13.051Z,4.92
2019-03-03T02:49:42.693Z,5.62
2019-03-03T02:52:12.444Z,4.95
2019-03-03T02:54:42.139Z,4.45
2019-03-03T02:57:11.839Z,5.35
2019-03-03T02:59:42.306Z,5.45
2019-03-03T03:02:13.654Z,4.85
2019-03-03T03:04:43.379Z,4.05
2019-03-03T03:07:14.800Z,6.00
2019-03-03T03:09:55.444Z,5.95
2019-03-03T03:12:30.868Z,4.55
2019-03-03T03:15:02.375Z,3.98
2019-03-03T03:17:33.908Z,4.50
2019-03-03T03:20:20.517Z,4.83
2019-03-03T03:22:57.996Z,4.12
2019-03-03T03:25:32.344Z,4.80
2019-03-03T03:28:03.762Z,4.80
2019-03-03T03:30:47.380Z,4.78
2019-03-03T03:33:24.581Z,4.58
2019-03-03T03:35:56.194Z,5.05
2019-03-03T03:38:33.090Z,5.65
2019-03-03T03:41:10.716Z,4.65
2019-03-03T03:43:42.137Z,3.72
2019-03-03T03:46:17.065Z,4.28
2019-03-03T03:48:51.474Z,5.78
2019-03-03T03:51:32.125Z,4.87
2019-03-03T03:54:06.778Z,5.87
2019-03-03T03:56:47.595Z,4.28
2019-03-03T03:59:19.299Z,4.75
2019-03-03T04:01:50.708Z,4.60
2019-03-03T04:04:22.091Z,4.78
2019-03-03T04:06:54.066Z,4.12
2019-03-03T04:09:25.661Z,4.35
2019-03-03T04:12:07.085Z,4.72
2019-03-03T04:14:39.073Z,5.70
2019-03-03T04:17:13.496Z,4.55
2019-03-03T04:19:45.468Z,5.65
2019-03-03T04:22:33.447Z,4.45
2019-03-03T04:25:20.889Z,5.03
2019-03-03T04:28:04.284Z,4.78
2019-03-03T04:30:36.203Z,4.97
2019-03-03T04:33:24.048Z,4.47
2019-03-03T04:35:55.455Z,5.65
2019-03-03T04:38:26.804Z,5.10
2019-03-03T04:41:14.242Z,4.55
2019-03-03T04:43:49.226Z,4.85
2019-03-03T04:46:24.279Z,5.45
2019-03-03T04:48:58.771Z,5.05
2019-03-03T04:51:42.298Z,4.22
2019-03-03T04:54:29.983Z,4.20
2019-03-03T04:57:13.372Z,4.53
2019-03-03T04:59:50.904Z,4.72
2019-03-03T05:02:31.814Z,4.17
2019-03-03T05:05:17.952Z,4.45
2019-03-03T05:07:49.399Z,5.33
2019-03-03T05:10:30.140Z,3.92
2019-03-03T05:13:10.315Z,4.08
2019-03-03T05:15:50.389Z,5.42
2019-03-03T05:18:23.621Z,4.37
2019-03-03T05:20:53.327Z,5.75
2019-03-03T05:23:23.110Z,4.58
2019-03-03T05:25:52.920Z,4.22
2019-03-03T05:28:23.154Z,4.67
2019-03-03T05:30:52.930Z,4.65
2019-03-03T05:33:22.738Z,4.00
2019-03-03T05:35:53.479Z,4.12
2019-03-03T05:38:23.183Z,4.53
2019-03-03T05:40:52.990Z,4.70
2019-03-03T05:43:23.053Z,4.33
2019-03-03T05:45:52.926Z,4.00
2019-03-03T05:48:22.666Z,4.95
2019-03-03T05:50:52.811Z,3.62
2019-03-03T05:53:22.447Z,4.08
2019-03-03T05:55:52.356Z,4.87
2019-03-03T05:58:22.856Z,4.53
2019-03-03T06:00:52.701Z,4.20
2019-03-03T06:03:22.512Z,5.53
2019-03-03T06:05:52.602Z,4.28
2019-03-03T06:08:22.376Z,4.37
2019-03-03T06:10:52.184Z,4.37
2019-03-03T06:13:22.447Z,5.17
2019-03-03T06:15:52.717Z,4.42
2019-03-03T06:18:22.460Z,4.55
2019-03-03T06:20:52.718Z,5.03
2019-03-03T06:23:22.344Z,3.95
2019-03-03T06:25:52.087Z,4.35
2019-03-03T06:28:21.794Z,4.10
2019-03-03T06:30:51.506Z,3.98
2019-03-03T06:33:21.182Z,5.10
2019-03-03T06:35:52.784Z,5.35
2019-03-03T06:38:22.723Z,5.03
2019-03-03T06:40:52.559Z,4.37
2019-03-03T06:43:22.330Z,4.67
2019-03-03T06:45:51.967Z,4.17
2019-03-03T06:48:21.799Z,4.62
2019-03-03T06:50:52.962Z,5.12
2019-03-03T06:53:23.165Z,4.58
2019-03-03T06:55:53.482Z,5.22
2019-03-03T06:58:23.189Z,5.40
2019-03-03T07:00:52.985Z,4.60
2019-03-03T07:03:23.102Z,3.92
2019-03-03T07:05:53.351Z,4.35
2019-03-03T07:08:23.345Z,5.25
2019-03-03T07:10:53.301Z,4.53
2019-03-03T07:13:23.491Z,4.62
2019-03-03T07:15:53.281Z,4.00
2019-03-03T07:18:23.444Z,4.55
2019-03-03T07:20:53.238Z,4.92
2019-03-03T07:23:23.367Z,4.22
2019-03-03T07:25:53.443Z,4.85
2019-03-03T07:28:23.355Z,4.62
2019-03-03T07:30:53.417Z,4.25
2019-03-03T07:33:25.259Z,5.12
2019-03-03T07:35:55.031Z,3.47
2019-03-03T07:38:24.811Z,4.70
2019-03-03T07:40:55.124Z,4.72
2019-03-03T07:43:24.900Z,4.40
2019-03-03T07:45:54.678Z,3.85
2019-03-03T07:48:25.315Z,3.85
2019-03-03T07:50:55.742Z,3.70
2019-03-03T07:53:26.157Z,4.22
2019-03-03T07:55:56.015Z,3.77
2019-03-03T07:58:25.804Z,4.75
2019-03-03T08:00:55.589Z,3.85
2019-03-03T08:03:25.317Z,3.80
2019-03-03T08:05:55.412Z,4.65
2019-03-03T08:08:25.183Z,3.75
2019-03-03T08:10:55.225Z,4.92
2019-03-03T08:13:25.219Z,4.10
2019-03-03T08:15:55.000Z,3.70
2019-03-03T08:18:25.629Z,3.90
2019-03-03T08:20:55.403Z,3.70
2019-03-03T08:23:25.179Z,3.30
2019-03-03T08:25:54.930Z,4.22
2019-03-03T08:28:25.119Z,4.03
2019-03-03T08:30:54.888Z,4.20
2019-03-03T08:33:24.635Z,4.60
2019-03-03T08:35:55.088Z,4.20
2019-03-03T08:38:24.865Z,3.50
2019-03-03T08:40:54.850Z,3.20
2019-03-03T08:43:26.514Z,4.12
2019-03-03T08:46:01.141Z,4.28
2019-03-03T08:48:41.488Z,3.70
2019-03-03T08:51:15.747Z,3.37
2019-03-03T08:54:03.233Z,4.05
2019-03-03T08:56:43.607Z,3.85
2019-03-03T08:59:21.036Z,4.08
2019-03-03T09:02:10.803Z,3.52
2019-03-03T09:04:45.435Z,3.52
2019-03-03T09:07:29.286Z,2.92
2019-03-03T09:10:12.538Z,3.85
2019-03-03T09:13:04.601Z,3.37
2019-03-03T09:15:39.000Z,3.60
2019-03-03T09:18:26.825Z,4.10
2019-03-03T09:21:04.034Z,4.53
2019-03-03T09:23:50.483Z,4.10
2019-03-03T09:26:21.903Z,4.65
2019-03-03T09:28:53.319Z,4.50
2019-03-03T09:31:30.271Z,4.45
2019-03-03T09:34:13.571Z,4.97
2019-03-03T09:36:47.924Z,4.30
2019-03-03T09:39:21.803Z,4.65
2019-03-03T09:41:56.707Z,5.00
2019-03-03T09:44:31.303Z,5.10
2019-03-03T09:47:02.760Z,5.30
2019-03-03T09:49:39.947Z,5.62
2019-03-03T09:52:27.529Z,4.95
2019-03-03T09:55:13.898Z,5.12
2019-03-03T09:57:57.587Z,4.72
2019-03-03T10:00:29.250Z,4.87
2019-03-03T10:03:07.422Z,5.12
2019-03-03T10:05:55.235Z,4.53
2019-03-03T10:08:36.025Z,5.70
2019-03-03T10:11:10.405Z,5.03
2019-03-03T10:13:50.975Z,6.05
2019-03-03T10:16:31.662Z,5.17
2019-03-03T10:19:07.127Z,5.85
2019-03-03T10:21:38.627Z,4.75
2019-03-03T10:24:26.519Z,4.62
2019-03-03T10:27:04.072Z,5.25
2019-03-03T10:29:51.999Z,4.78
2019-03-03T10:32:23.423Z,5.30
2019-03-03T10:34:57.262Z,4.53
2019-03-03T10:37:30.294Z,4.60
2019-03-03T10:40:01.642Z,4.53
2019-03-03T10:42:36.323Z,5.20
2019-03-03T10:45:16.098Z,4.53
2019-03-03T10:47:47.548Z,3.08
2019-03-03T10:50:18.960Z,2.72
2019-03-03T10:52:56.099Z,2.83
2019-03-03T10:55:30.159Z,2.52
2019-03-03T10:58:01.642Z,2.50
2019-03-03T11:00:49.330Z,2.50
2019-03-03T11:03:23.766Z,2.77
2019-03-03T11:05:58.221Z,2.80
2019-03-03T11:08:46.726Z,2.90
2019-03-03T11:11:23.987Z,2.87
2019-03-03T11:14:04.910Z,2.85
2019-03-03T11:16:36.363Z,2.72
2019-03-03T11:19:10.688Z,3.77
2019-03-03T11:21:50.914Z,3.55
2019-03-03T11:24:38.322Z,3.55
2019-03-03T11:27:28.192Z,5.25
2019-03-03T11:30:08.492Z,4.92
2019-03-03T11:32:39.931Z,4.35
2019-03-03T11:35:14.140Z,4.28
2019-03-03T11:38:02.020Z,4.75
2019-03-03T11:40:34.379Z,3.80
2019-03-03T11:43:24.112Z,3.98
2019-03-03T11:46:04.396Z,4.15
2019-03-03T11:48:35.746Z,4.12
2019-03-03T11:51:07.259Z,4.40
2019-03-03T11:53:38.802Z,5.20
2019-03-03T11:56:28.387Z,4.83
2019-03-03T11:59:11.599Z,5.05
2019-03-03T12:01:46.048Z,4.47
2019-03-03T12:04:33.858Z,4.50
2019-03-03T12:07:05.315Z,4.28
2019-03-03T12:09:39.960Z,4.40
2019-03-03T12:12:27.107Z,4.50
2019-03-03T12:14:58.527Z,4.00
2019-03-03T12:17:45.043Z,3.77
2019-03-03T12:20:16.804Z,4.25
2019-03-03T12:23:03.387Z,4.28
2019-03-03T12:25:51.003Z,4.00
2019-03-03T12:28:31.685Z,4.55
2019-03-03T12:31:08.843Z,5.10
2019-03-03T12:33:43.042Z,3.65
2019-03-03T12:36:17.186Z,4.15
2019-03-03T12:38:57.979Z,4.83
2019-03-03T12:41:32.087Z,4.42
2019-03-03T12:44:09.687Z,4.62
2019-03-03T12:46:41.158Z,3.77
2019-03-03T12:49:12.505Z,3.92
2019-03-03T12:51:58.783Z,4.22
2019-03-03T12:54:30.131Z,4.60
2019-03-03T12:57:07.087Z,3.75
2019-03-03T12:59:38.354Z,5.35
2019-03-03T13:02:25.773Z,5.75
2019-03-03T13:04:57.187Z,5.20
2019-03-03T13:07:28.768Z,29.52
2019-03-03T13:10:16.375Z,6.65
2019-03-03T13:13:03.999Z,6.65
2019-03-03T13:15:35.453Z,8.05
2019-03-03T13:18:06.972Z,7.80
2019-03-03T13:20:52.772Z,6.08
2019-03-03T13:23:43.392Z,6.37
2019-03-03T13:26:14.843Z,6.12
2019-03-03T13:29:02.343Z,6.53
2019-03-03T13:31:46.283Z,6.40
2019-03-03T13:34:33.873Z,7.67
2019-03-03T13:37:08.787Z,7.33
2019-03-03T13:39:40.151Z,7.62
2019-03-03T13:42:21.146Z,7.78
2019-03-03T13:44:50.968Z,7.72
2019-03-03T13:47:20.752Z,7.55
2019-03-03T13:49:50.569Z,8.93
2019-03-03T13:52:20.336Z,7.70
2019-03-03T13:54:50.114Z,8.25
2019-03-03T13:57:19.919Z,8.85
2019-03-03T13:59:49.716Z,8.58
2019-03-03T14:02:19.591Z,8.50
2019-03-03T14:04:49.323Z,8.65
2019-03-03T14:07:19.023Z,8.03
2019-03-03T14:09:48.969Z,8.28
2019-03-03T14:12:18.778Z,8.83
2019-03-03T14:14:48.899Z,8.75
2019-03-03T14:17:18.591Z,8.28
2019-03-03T14:19:48.401Z,8.38
2019-03-03T14:22:18.183Z,8.18
2019-03-03T14:24:50.164Z,8.20
2019-03-03T14:27:19.979Z,8.75
2019-03-03T14:29:49.615Z,11.00
2019-03-03T14:32:19.480Z,9.60
2019-03-03T14:34:49.458Z,10.55
2019-03-03T14:37:19.399Z,10.90
2019-03-03T14:39:49.384Z,11.55
2019-03-03T14:42:19.367Z,12.10
2019-03-03T14:44:49.206Z,11.15
2019-03-03T14:47:19.335Z,11.75
2019-03-03T14:49:49.159Z,11.68
2019-03-03T14:52:19.078Z,11.70
2019-03-03T14:54:49.222Z,12.73
2019-03-03T14:57:19.046Z,14.33
2019-03-03T14:59:48.955Z,14.83
2019-03-03T15:02:19.280Z,14.58
2019-03-03T15:04:49.160Z,15.08
2019-03-03T15:07:18.946Z,14.45
2019-03-03T15:09:48.735Z,13.38
2019-03-03T15:12:18.552Z,12.13
2019-03-03T15:14:48.671Z,12.33
2019-03-03T15:17:18.391Z,13.53
2019-03-03T15:19:48.194Z,12.78
2019-03-03T15:22:18.747Z,12.90
2019-03-03T15:24:48.685Z,12.25
2019-03-03T15:27:18.573Z,17.10
2019-03-03T15:29:48.367Z,14.95
2019-03-03T15:32:18.143Z,17.10
2019-03-03T15:34:47.891Z,18.12
2019-03-03T15:37:17.743Z,13.60
2019-03-03T15:39:47.547Z,15.40
2019-03-03T15:42:17.427Z,14.28
2019-03-03T15:44:47.234Z,13.30
2019-03-03T15:47:17.020Z,13.95
2019-03-03T15:49:46.755Z,11.95
2019-03-03T15:52:16.538Z,12.03
2019-03-03T15:54:46.324Z,11.53
2019-03-03T15:57:16.344Z,10.50
2019-03-03T15:59:46.127Z,9.28
2019-03-03T16:02:15.911Z,9.40
2019-03-03T16:04:45.729Z,7.65
2019-03-03T16:07:15.506Z,7.08
2019-03-03T16:09:45.330Z,5.50
2019-03-03T16:12:15.152Z,4.12
2019-03-03T16:14:44.935Z,4.50
2019-03-03T16:17:14.642Z,4.10
2019-03-03T16:19:44.603Z,3.90
2019-03-03T16:22:14.573Z,4.45
2019-03-03T16:24:44.481Z,4.22
2019-03-03T16:27:14.603Z,4.78
2019-03-03T16:29:44.389Z,4.90
2019-03-03T16:32:14.470Z,4.50
2019-03-03T16:34:44.349Z,4.00
2019-03-03T16:37:14.465Z,3.02
2019-03-03T16:39:44.246Z,3.17
2019-03-03T16:42:14.276Z,3.40
2019-03-03T16:44:44.223Z,4.30
2019-03-03T16:47:14.591Z,3.55
2019-03-03T16:49:44.603Z,3.65
2019-03-03T16:52:14.417Z,4.37
2019-03-03T16:54:44.273Z,3.55
2019-03-03T16:57:14.882Z,3.55
2019-03-03T16:59:44.655Z,3.83
2019-03-03T17:02:14.463Z,3.08
2019-03-03T17:04:44.278Z,2.60
2019-03-03T17:07:14.455Z,3.10
2019-03-03T17:09:44.246Z,3.40
2019-03-03T17:12:14.652Z,3.17
2019-03-03T17:14:44.350Z,3.60
2019-03-03T17:17:14.169Z,3.20
2019-03-03T17:19:44.439Z,3.25
2019-03-03T17:22:14.552Z,3.80
2019-03-03T17:24:44.478Z,3.05
2019-03-03T17:27:14.296Z,3.52
2019-03-03T17:29:44.175Z,2.85
2019-03-03T17:32:14.143Z,3.72
2019-03-03T17:34:44.191Z,2.72
2019-03-03T17:37:14.058Z,3.60
2019-03-03T17:39:44.129Z,2.90
2019-03-03T17:42:14.052Z,3.08
2019-03-03T17:44:44.115Z,3.02
2019-03-03T17:47:13.929Z,2.87
2019-03-03T17:49:43.883Z,2.72
2019-03-03T17:52:13.890Z,2.83
2019-03-03T17:54:44.068Z,4.12
2019-03-03T17:57:13.903Z,2.83
2019-03-03T17:59:43.810Z,2.90
2019-03-03T18:02:13.863Z,3.27
2019-03-03T18:04:43.765Z,3.12
2019-03-03T18:07:13.831Z,3.35
2019-03-03T18:09:43.648Z,3.70
2019-03-03T18:12:13.610Z,3.50
2019-03-03T18:14:43.708Z,3.50
2019-03-03T18:17:13.527Z,3.35
2019-03-03T18:19:44.478Z,3.35
2019-03-03T18:22:14.777Z,3.75
2019-03-03T18:24:44.559Z,3.80
2019-03-03T18:27:14.314Z,3.95
2019-03-03T18:29:44.025Z,3.30
2019-03-03T18:32:13.828Z,5.37
2019-03-03T18:34:43.881Z,3.90
2019-03-03T18:37:13.763Z,4.87
2019-03-03T18:39:43.719Z,3.87
2019-03-03T18:42:13.735Z,3.50
2019-03-03T18:44:43.812Z,3.37
2019-03-03T18:47:13.593Z,3.67
2019-03-03T18:49:43.411Z,3.50
2019-03-03T18:52:13.123Z,2.85
2019-03-03T18:54:42.903Z,3.12
2019-03-03T18:57:12.664Z,3.22
2019-03-03T18:59:43.251Z,3.27
2019-03-03T19:02:15.551Z,4.47
2019-03-03T19:04:45.863Z,4.05
2019-03-03T19:07:15.638Z,4.65
2019-03-03T19:09:45.419Z,3.72
2019-03-03T19:12:15.768Z,4.47
2019-03-03T19:14:45.478Z,4.28
2019-03-03T19:17:15.263Z,3.50
2019-03-03T19:19:45.747Z,3.70
2019-03-03T19:22:15.543Z,3.27
2019-03-03T19:24:45.465Z,2.85
2019-03-03T19:27:15.737Z,2.77
2019-03-03T19:29:45.527Z,2.45
2019-03-03T19:32:15.315Z,2.65
2019-03-03T19:34:45.211Z,2.10
2019-03-03T19:37:14.992Z,2.50
2019-03-03T19:39:45.799Z,2.37
2019-03-03T19:42:15.606Z,2.50
2019-03-03T19:44:45.417Z,3.08
2019-03-03T19:47:15.199Z,3.50
2019-03-03T19:49:44.949Z,2.95
2019-03-03T19:52:14.661Z,3.08
2019-03-03T19:54:44.438Z,4.00
2019-03-03T19:57:14.382Z,2.77
2019-03-03T19:59:45.180Z,2.65
2019-03-03T20:02:14.967Z,2.85
2019-03-03T20:04:45.273Z,2.83
2019-03-03T20:07:15.047Z,2.20
2019-03-03T20:09:44.831Z,2.80
2019-03-03T20:12:14.772Z,2.58
2019-03-03T20:14:44.872Z,2.95
2019-03-03T20:17:14.729Z,2.52
2019-03-03T20:19:44.407Z,2.87
2019-03-03T20:22:14.627Z,2.87
2019-03-03T20:24:44.509Z,2.87
2019-03-03T20:27:14.543Z,3.70
2019-03-03T20:29:44.636Z,3.52
2019-03-03T20:32:14.509Z,2.95
2019-03-03T20:34:44.344Z,3.02
2019-03-03T20:37:14.170Z,2.37
2019-03-03T20:39:44.231Z,3.17
2019-03-03T20:42:14.227Z,2.25
2019-03-03T20:44:44.217Z,2.55
2019-03-03T20:47:14.239Z,3.62
2019-03-03T20:49:44.960Z,3.02
2019-03-03T20:52:14.705Z,3.00
2019-03-03T20:54:45.179Z,3.10
2019-03-03T20:57:15.734Z,2.90
2019-03-03T20:59:45.584Z,2.17
2019-03-03T21:02:15.463Z,2.15
2019-03-03T21:04:45.320Z,2.42
2019-03-03T21:07:15.245Z,2.37
2019-03-03T21:09:45.204Z,2.10
2019-03-03T21:12:15.299Z,2.15
2019-03-03T21:14:46.013Z,2.33
2019-03-03T21:17:15.784Z,1.52
2019-03-03T21:19:45.454Z,1.80
2019-03-03T21:22:16.132Z,1.80
2019-03-03T21:24:46.592Z,1.35
2019-03-03T21:27:16.362Z,1.15
2019-03-03T21:29:46.139Z,1.45
2019-03-03T21:32:15.844Z,1.77
2019-03-03T21:34:45.823Z,1.72
2019-03-03T21:37:15.655Z,1.40
2019-03-03T21:39:45.604Z,1.42
2019-03-03T21:42:15.960Z,1.07
2019-03-03T21:44:45.672Z,1.55
2019-03-03T21:47:15.449Z,1.37
2019-03-03T21:49:45.114Z,1.30
2019-03-03T21:52:14.816Z,1.20
2019-03-03T21:54:46.885Z,1.17
2019-03-03T21:57:16.043Z,1.10
2019-03-03T21:59:45.811Z,1.22
2019-03-03T22:02:15.781Z,1.50
2019-03-03T22:04:46.431Z,0.90
2019-03-03T22:07:16.136Z,1.10
2019-03-03T22:09:45.872Z,0.95
2019-03-03T22:12:15.802Z,0.80
2019-03-03T22:14:45.712Z,0.80
2019-03-03T22:17:16.180Z,0.75
2019-03-03T22:19:45.960Z,0.70
2019-03-03T22:22:16.174Z,0.60
2019-03-03T22:24:46.373Z,0.93
2019-03-03T22:27:16.251Z,2.37
2019-03-03T22:29:46.374Z,2.90
2019-03-03T22:32:16.152Z,2.33
2019-03-03T22:34:46.306Z,1.82
2019-03-03T22:37:16.112Z,1.50
2019-03-03T22:39:46.323Z,1.70
2019-03-03T22:42:16.444Z,1.90
2019-03-03T22:44:46.115Z,1.70
2019-03-03T22:47:15.920Z,2.02
2019-03-03T22:49:45.939Z,2.10
2019-03-03T22:52:15.774Z,2.08
2019-03-03T22:54:45.895Z,2.10
2019-03-03T22:57:15.891Z,2.50
2019-03-03T22:59:45.602Z,3.08
2019-03-03T23:02:16.597Z,3.00
2019-03-03T23:05:04.470Z,2.77
2019-03-03T23:07:40.478Z,2.40
2019-03-03T23:10:19.146Z,2.25
2019-03-03T23:12:55.800Z,1.70
2019-03-03T23:15:31.834Z,1.25
2019-03-03T23:18:19.560Z,1.82
2019-03-03T23:21:07.035Z,1.07
2019-03-03T23:23:45.707Z,2.50
2019-03-03T23:26:16.854Z,3.10
2019-03-03T23:28:46.802Z,2.15
2019-03-03T23:31:16.583Z,2.65
2019-03-03T23:33:46.455Z,2.25
2019-03-03T23:36:16.387Z,1.67
2019-03-03T23:38:46.162Z,1.90
2019-03-03T23:41:15.898Z,1.72
2019-03-03T23:43:45.534Z,1.85
2019-03-03T23:46:15.663Z,2.10
2019-03-03T23:48:46.090Z,2.77
2019-03-03T23:51:16.067Z,3.27
2019-03-03T23:53:45.899Z,2.70
2019-03-03T23:56:15.917Z,2.90
2019-03-03T23:58:45.795Z,3.30
